sensor_id;sensor_type;location;lat;lon;timestamp;noise_LAeq;noise_LA_min;noise_LA_max;noise_LA01;noise_LA95
72028;Laerm;59781;52.090;5.030;2023-02-28T00:00:26;40.48;37.91;44.86;;
72028;Laerm;59781;52.090;5.030;2023-02-28T00:02:52;40.72;38.26;45.50;;
72028;Laerm;59781;52.090;5.030;2023-02-28T00:05:21;40.90;38.12;49.60;;
72028;Laerm;59781;52.090;5.030;2023-02-28T00:07:49;40.90;37.65;53.33;;
72028;Laerm;59781;52.090;5.030;2023-02-28T00:10:26;39.90;37.41;54.28;;
72028;Laerm;59781;52.090;5.030;2023-02-28T00:12:55;39.74;37.35;43.06;;
72028;Laerm;59781;52.090;5.030;2023-02-28T00:15:25;40.00;37.44;45.66;;
72028;Laerm;59781;52.090;5.030;2023-02-28T00:17:51;40.55;38.10;44.81;;
72028;Laerm;59781;52.090;5.030;2023-02-28T00:20:19;39.59;37.28;42.82;;
72028;Laerm;59781;52.090;5.030;2023-02-28T00:22:49;39.68;37.47;43.66;;
72028;Laerm;59781;52.090;5.030;2023-02-28T00:25:20;39.49;37.31;46.16;;
72028;Laerm;59781;52.090;5.030;2023-02-28T00:27:47;39.71;37.31;46.17;;
72028;Laerm;59781;52.090;5.030;2023-02-28T00:30:23;39.51;37.51;42.83;;
72028;Laerm;59781;52.090;5.030;2023-02-28T00:32:50;39.92;37.45;44.43;;
72028;Laerm;59781;52.090;5.030;2023-02-28T00:35:16;40.23;36.96;47.32;;
72028;Laerm;59781;52.090;5.030;2023-02-28T00:37:42;39.18;36.80;41.21;;
72028;Laerm;59781;52.090;5.030;2023-02-28T00:40:09;39.05;36.99;41.35;;
72028;Laerm;59781;52.090;5.030;2023-02-28T00:42:36;39.24;37.06;41.55;;
72028;Laerm;59781;52.090;5.030;2023-02-28T00:45:03;39.17;36.75;41.68;;
72028;Laerm;59781;52.090;5.030;2023-02-28T00:47:31;41.27;37.21;55.35;;
72028;Laerm;59781;52.090;5.030;2023-02-28T00:49:57;41.76;36.97;55.36;;
72028;Laerm;59781;52.090;5.030;2023-02-28T00:52:23;38.93;36.84;41.73;;
72028;Laerm;59781;52.090;5.030;2023-02-28T00:54:49;38.89;36.80;41.21;;
72028;Laerm;59781;52.090;5.030;2023-02-28T00:57:14;39.24;36.62;44.62;;
72028;Laerm;59781;52.090;5.030;2023-02-28T00:59:40;39.37;36.76;46.43;;
72028;Laerm;59781;52.090;5.030;2023-02-28T01:02:06;39.17;37.04;52.87;;
72028;Laerm;59781;52.090;5.030;2023-02-28T01:04:32;38.95;36.63;41.00;;
72028;Laerm;59781;52.090;5.030;2023-02-28T01:07:00;38.93;36.70;41.17;;
72028;Laerm;59781;52.090;5.030;2023-02-28T01:09:28;38.67;36.58;40.70;;
72028;Laerm;59781;52.090;5.030;2023-02-28T01:11:54;38.90;36.85;41.05;;
72028;Laerm;59781;52.090;5.030;2023-02-28T01:14:20;39.37;36.68;44.19;;
72028;Laerm;59781;52.090;5.030;2023-02-28T01:16:46;38.96;36.86;41.50;;
72028;Laerm;59781;52.090;5.030;2023-02-28T01:19:11;39.36;36.84;44.35;;
72028;Laerm;59781;52.090;5.030;2023-02-28T01:21:37;38.84;36.45;41.27;;
72028;Laerm;59781;52.090;5.030;2023-02-28T01:24:05;38.69;36.49;40.92;;
72028;Laerm;59781;52.090;5.030;2023-02-28T01:26:31;39.26;37.07;44.02;;
72028;Laerm;59781;52.090;5.030;2023-02-28T01:28:57;39.06;36.92;41.43;;
72028;Laerm;59781;52.090;5.030;2023-02-28T01:31:25;39.32;37.03;41.69;;
72028;Laerm;59781;52.090;5.030;2023-02-28T01:33:51;39.03;36.83;41.12;;
72028;Laerm;59781;52.090;5.030;2023-02-28T01:36:24;38.87;36.65;42.69;;
72028;Laerm;59781;52.090;5.030;2023-02-28T01:38:50;39.02;36.67;41.39;;
72028;Laerm;59781;52.090;5.030;2023-02-28T01:41:26;39.27;36.90;41.45;;
72028;Laerm;59781;52.090;5.030;2023-02-28T01:46:34;39.35;37.01;46.64;;
72028;Laerm;59781;52.090;5.030;2023-02-28T01:49:12;38.88;36.96;41.71;;
72028;Laerm;59781;52.090;5.030;2023-02-28T01:51:47;38.89;36.76;41.83;;
72028;Laerm;59781;52.090;5.030;2023-02-28T01:54:29;39.07;36.95;41.72;;
72028;Laerm;59781;52.090;5.030;2023-02-28T01:57:06;39.42;37.16;43.13;;
72028;Laerm;59781;52.090;5.030;2023-02-28T01:59:47;39.32;37.48;41.72;;
72028;Laerm;59781;52.090;5.030;2023-02-28T02:02:18;39.19;37.01;41.84;;
72028;Laerm;59781;52.090;5.030;2023-02-28T02:05:16;39.26;36.83;43.31;;
72028;Laerm;59781;52.090;5.030;2023-02-28T02:07:48;39.05;36.95;41.01;;
72028;Laerm;59781;52.090;5.030;2023-02-28T02:10:25;39.13;36.83;42.38;;
72028;Laerm;59781;52.090;5.030;2023-02-28T02:27:59;44.57;37.38;59.70;;
72028;Laerm;59781;52.090;5.030;2023-02-28T02:36:56;40.05;36.91;47.50;;
72028;Laerm;59781;52.090;5.030;2023-02-28T02:42:35;39.48;37.09;42.38;;
72028;Laerm;59781;52.090;5.030;2023-02-28T02:47:44;43.49;37.43;57.09;;
72028;Laerm;59781;52.090;5.030;2023-02-28T02:50:37;39.28;37.11;43.43;;
72028;Laerm;59781;52.090;5.030;2023-02-28T02:53:08;39.20;37.02;41.77;;
72028;Laerm;59781;52.090;5.030;2023-02-28T02:55:44;40.08;36.83;61.41;;
72028;Laerm;59781;52.090;5.030;2023-02-28T02:58:24;38.97;36.85;41.14;;
72028;Laerm;59781;52.090;5.030;2023-02-28T03:00:57;42.53;36.83;60.38;;
72028;Laerm;59781;52.090;5.030;2023-02-28T03:03:26;38.81;36.58;40.98;;
72028;Laerm;59781;52.090;5.030;2023-02-28T03:06:02;43.43;37.10;57.62;;
72028;Laerm;59781;52.090;5.030;2023-02-28T03:08:34;38.83;36.51;41.11;;
72028;Laerm;59781;52.090;5.030;2023-02-28T03:11:04;42.01;36.96;55.89;;
72028;Laerm;59781;52.090;5.030;2023-02-28T03:22:14;39.61;37.23;44.81;;
72028;Laerm;59781;52.090;5.030;2023-02-28T03:28:15;38.97;37.01;41.32;;
72028;Laerm;59781;52.090;5.030;2023-02-28T03:31:21;39.15;36.91;42.88;;
72028;Laerm;59781;52.090;5.030;2023-02-28T03:34:04;39.58;37.07;49.61;;
72028;Laerm;59781;52.090;5.030;2023-02-28T03:36:41;39.51;37.25;45.41;;
72028;Laerm;59781;52.090;5.030;2023-02-28T03:39:25;39.75;37.17;49.35;;
72028;Laerm;59781;52.090;5.030;2023-02-28T03:42:00;39.65;37.36;41.85;;
72028;Laerm;59781;52.090;5.030;2023-02-28T03:44:43;39.30;37.00;43.08;;
72028;Laerm;59781;52.090;5.030;2023-02-28T03:47:23;39.49;36.84;43.39;;
72028;Laerm;59781;52.090;5.030;2023-02-28T03:50:09;39.64;37.59;42.30;;
72028;Laerm;59781;52.090;5.030;2023-02-28T03:52:49;39.74;37.30;45.70;;
72028;Laerm;59781;52.090;5.030;2023-02-28T03:55:18;39.59;37.44;41.89;;
72028;Laerm;59781;52.090;5.030;2023-02-28T03:57:57;39.37;36.84;41.61;;
72028;Laerm;59781;52.090;5.030;2023-02-28T04:00:36;39.42;37.15;41.70;;
72028;Laerm;59781;52.090;5.030;2023-02-28T04:03:05;39.74;37.04;48.30;;
72028;Laerm;59781;52.090;5.030;2023-02-28T04:05:33;39.46;37.14;41.80;;
72028;Laerm;59781;52.090;5.030;2023-02-28T04:08:09;39.52;37.09;46.79;;
72028;Laerm;59781;52.090;5.030;2023-02-28T04:10:34;39.96;37.64;45.17;;
72028;Laerm;59781;52.090;5.030;2023-02-28T04:13:00;39.70;37.31;45.50;;
72028;Laerm;59781;52.090;5.030;2023-02-28T04:15:26;40.36;37.50;43.77;;
72028;Laerm;59781;52.090;5.030;2023-02-28T04:17:53;39.95;38.03;43.94;;
72028;Laerm;59781;52.090;5.030;2023-02-28T04:20:18;39.54;37.09;44.41;;
72028;Laerm;59781;52.090;5.030;2023-02-28T04:22:44;39.83;37.40;42.68;;
72028;Laerm;59781;52.090;5.030;2023-02-28T04:25:10;40.37;37.79;46.73;;
72028;Laerm;59781;52.090;5.030;2023-02-28T04:27:36;39.74;37.59;50.43;;
72028;Laerm;59781;52.090;5.030;2023-02-28T04:30:02;39.84;37.67;43.80;;
72028;Laerm;59781;52.090;5.030;2023-02-28T04:32:28;40.09;37.64;46.59;;
72028;Laerm;59781;52.090;5.030;2023-02-28T04:34:53;40.48;37.43;47.92;;
72028;Laerm;59781;52.090;5.030;2023-02-28T04:37:19;39.61;37.40;41.75;;
72028;Laerm;59781;52.090;5.030;2023-02-28T04:39:45;39.63;37.43;44.87;;
72028;Laerm;59781;52.090;5.030;2023-02-28T04:42:13;40.24;37.49;46.12;;
72028;Laerm;59781;52.090;5.030;2023-02-28T04:44:39;40.03;37.80;44.53;;
72028;Laerm;59781;52.090;5.030;2023-02-28T04:47:04;40.24;37.76;44.16;;
72028;Laerm;59781;52.090;5.030;2023-02-28T04:49:30;42.71;37.91;52.36;;
72028;Laerm;59781;52.090;5.030;2023-02-28T04:51:56;40.24;37.42;45.99;;
72028;Laerm;59781;52.090;5.030;2023-02-28T04:54:22;40.78;37.55;45.82;;
72028;Laerm;59781;52.090;5.030;2023-02-28T04:56:47;39.92;37.79;45.87;;
72028;Laerm;59781;52.090;5.030;2023-02-28T04:59:15;40.27;37.62;54.97;;
72028;Laerm;59781;52.090;5.030;2023-02-28T05:01:47;41.05;37.70;58.12;;
72028;Laerm;59781;52.090;5.030;2023-02-28T05:04:13;41.17;37.30;57.47;;
72028;Laerm;59781;52.090;5.030;2023-02-28T05:06:39;40.27;37.40;59.38;;
72028;Laerm;59781;52.090;5.030;2023-02-28T05:09:05;55.39;38.07;82.52;;
72028;Laerm;59781;52.090;5.030;2023-02-28T05:11:33;43.46;37.91;62.38;;
72028;Laerm;59781;52.090;5.030;2023-02-28T05:14:02;44.22;37.99;63.39;;
72028;Laerm;59781;52.090;5.030;2023-02-28T05:16:28;41.57;38.37;59.00;;
72028;Laerm;59781;52.090;5.030;2023-02-28T05:18:54;40.76;37.99;45.26;;
72028;Laerm;59781;52.090;5.030;2023-02-28T05:21:33;42.18;38.40;52.25;;
72028;Laerm;59781;52.090;5.030;2023-02-28T05:24:10;41.49;37.98;53.39;;
72028;Laerm;59781;52.090;5.030;2023-02-28T05:26:39;43.67;38.22;65.77;;
72028;Laerm;59781;52.090;5.030;2023-02-28T05:29:05;42.63;38.58;65.69;;
72028;Laerm;59781;52.090;5.030;2023-02-28T05:31:32;41.76;38.43;51.54;;
72028;Laerm;59781;52.090;5.030;2023-02-28T05:33:58;42.26;38.68;60.05;;
72028;Laerm;59781;52.090;5.030;2023-02-28T05:36:25;42.98;38.90;57.09;;
72028;Laerm;59781;52.090;5.030;2023-02-28T05:38:51;42.19;38.87;58.53;;
72028;Laerm;59781;52.090;5.030;2023-02-28T05:41:19;47.88;38.75;74.88;;
72028;Laerm;59781;52.090;5.030;2023-02-28T05:43:46;42.51;39.19;52.44;;
72028;Laerm;59781;52.090;5.030;2023-02-28T05:46:13;41.78;39.15;54.04;;
72028;Laerm;59781;52.090;5.030;2023-02-28T05:48:46;43.43;38.96;61.27;;
72028;Laerm;59781;52.090;5.030;2023-02-28T05:51:12;42.08;39.22;51.66;;
72028;Laerm;59781;52.090;5.030;2023-02-28T05:53:37;42.10;38.93;49.05;;
72028;Laerm;59781;52.090;5.030;2023-02-28T05:56:04;43.20;39.71;60.92;;
72028;Laerm;59781;52.090;5.030;2023-02-28T05:58:30;42.34;39.35;45.88;;
72028;Laerm;59781;52.090;5.030;2023-02-28T06:01:01;43.36;38.76;65.95;;
72028;Laerm;59781;52.090;5.030;2023-02-28T06:03:44;43.38;39.24;63.55;;
72028;Laerm;59781;52.090;5.030;2023-02-28T06:06:09;43.66;39.71;62.56;;
72028;Laerm;59781;52.090;5.030;2023-02-28T06:08:35;43.12;39.91;55.20;;
72028;Laerm;59781;52.090;5.030;2023-02-28T06:11:03;44.06;39.34;55.65;;
72028;Laerm;59781;52.090;5.030;2023-02-28T06:13:29;43.25;39.47;51.60;;
72028;Laerm;59781;52.090;5.030;2023-02-28T06:15:55;43.35;40.16;56.44;;
72028;Laerm;59781;52.090;5.030;2023-02-28T06:18:21;43.43;40.27;54.19;;
72028;Laerm;59781;52.090;5.030;2023-02-28T06:20:53;45.73;40.44;61.49;;
72028;Laerm;59781;52.090;5.030;2023-02-28T06:23:20;46.42;40.81;65.59;;
72028;Laerm;59781;52.090;5.030;2023-02-28T06:25:47;48.04;41.55;62.08;;
72028;Laerm;59781;52.090;5.030;2023-02-28T06:28:13;44.57;41.22;56.05;;
72028;Laerm;59781;52.090;5.030;2023-02-28T06:30:39;48.25;41.21;63.17;;
72028;Laerm;59781;52.090;5.030;2023-02-28T06:33:04;44.73;41.28;56.35;;
72028;Laerm;59781;52.090;5.030;2023-02-28T06:35:31;47.29;41.56;59.63;;
72028;Laerm;59781;52.090;5.030;2023-02-28T06:37:57;45.86;41.90;66.27;;
72028;Laerm;59781;52.090;5.030;2023-02-28T06:40:23;50.83;42.74;70.73;;
72028;Laerm;59781;52.090;5.030;2023-02-28T06:42:49;50.30;42.84;72.03;;
72028;Laerm;59781;52.090;5.030;2023-02-28T06:45:14;49.81;42.14;74.52;;
72028;Laerm;59781;52.090;5.030;2023-02-28T06:47:41;50.35;42.58;61.07;;
72028;Laerm;59781;52.090;5.030;2023-02-28T06:50:11;46.35;42.66;56.35;;
72028;Laerm;59781;52.090;5.030;2023-02-28T06:52:38;46.18;43.42;58.88;;
72028;Laerm;59781;52.090;5.030;2023-02-28T06:55:08;46.45;41.83;57.72;;
72028;Laerm;59781;52.090;5.030;2023-02-28T06:57:35;46.43;42.30;50.81;;
72028;Laerm;59781;52.090;5.030;2023-02-28T07:00:09;46.42;42.49;54.20;;
72028;Laerm;59781;52.090;5.030;2023-02-28T07:02:38;48.91;42.53;57.26;;
72028;Laerm;59781;52.090;5.030;2023-02-28T07:05:05;45.85;42.36;55.06;;
72028;Laerm;59781;52.090;5.030;2023-02-28T07:07:31;45.82;41.88;62.68;;
72028;Laerm;59781;52.090;5.030;2023-02-28T07:09:57;46.13;41.91;51.05;;
72028;Laerm;59781;52.090;5.030;2023-02-28T07:12:23;46.04;42.57;50.59;;
72028;Laerm;59781;52.090;5.030;2023-02-28T07:14:49;45.51;42.39;55.63;;
72028;Laerm;59781;52.090;5.030;2023-02-28T07:17:15;46.60;42.05;52.25;;
72028;Laerm;59781;52.090;5.030;2023-02-28T07:19:41;46.44;42.22;69.61;;
72028;Laerm;59781;52.090;5.030;2023-02-28T07:22:07;45.84;41.70;70.29;;
72028;Laerm;59781;52.090;5.030;2023-02-28T07:24:33;47.92;43.25;74.23;;
72028;Laerm;59781;52.090;5.030;2023-02-28T07:27:00;45.79;41.96;67.98;;
72028;Laerm;59781;52.090;5.030;2023-02-28T07:29:26;46.13;42.88;55.44;;
72028;Laerm;59781;52.090;5.030;2023-02-28T07:31:52;47.79;42.29;79.30;;
72028;Laerm;59781;52.090;5.030;2023-02-28T07:34:20;45.62;42.40;67.00;;
72028;Laerm;59781;52.090;5.030;2023-02-28T07:36:46;46.65;42.77;55.43;;
72028;Laerm;59781;52.090;5.030;2023-02-28T07:39:11;45.95;43.03;50.16;;
72028;Laerm;59781;52.090;5.030;2023-02-28T07:41:37;45.56;41.85;53.84;;
72028;Laerm;59781;52.090;5.030;2023-02-28T07:44:12;47.71;42.56;72.07;;
72028;Laerm;59781;52.090;5.030;2023-02-28T07:46:38;45.80;42.29;60.28;;
72028;Laerm;59781;52.090;5.030;2023-02-28T07:49:05;45.71;41.83;49.42;;
72028;Laerm;59781;52.090;5.030;2023-02-28T07:51:31;45.78;42.67;51.05;;
72028;Laerm;59781;52.090;5.030;2023-02-28T07:53:58;46.00;42.54;56.29;;
72028;Laerm;59781;52.090;5.030;2023-02-28T07:56:23;46.51;42.79;58.09;;
72028;Laerm;59781;52.090;5.030;2023-02-28T07:58:49;49.10;42.88;68.44;;
72028;Laerm;59781;52.090;5.030;2023-02-28T08:01:16;49.88;43.71;60.07;;
72028;Laerm;59781;52.090;5.030;2023-02-28T08:03:42;49.51;43.17;59.45;;
72028;Laerm;59781;52.090;5.030;2023-02-28T08:06:21;48.55;43.34;58.01;;
72028;Laerm;59781;52.090;5.030;2023-02-28T08:08:47;48.19;42.78;60.40;;
72028;Laerm;59781;52.090;5.030;2023-02-28T08:11:14;48.49;43.45;55.26;;
72028;Laerm;59781;52.090;5.030;2023-02-28T08:13:42;48.67;43.65;68.77;;
72028;Laerm;59781;52.090;5.030;2023-02-28T08:16:12;49.84;42.64;68.72;;
72028;Laerm;59781;52.090;5.030;2023-02-28T08:18:51;51.80;43.36;69.66;;
72028;Laerm;59781;52.090;5.030;2023-02-28T08:21:17;49.83;43.41;63.69;;
72028;Laerm;59781;52.090;5.030;2023-02-28T08:23:43;48.42;43.31;56.61;;
72028;Laerm;59781;52.090;5.030;2023-02-28T08:26:09;48.17;43.68;61.13;;
72028;Laerm;59781;52.090;5.030;2023-02-28T08:28:38;47.83;43.17;56.97;;
72028;Laerm;59781;52.090;5.030;2023-02-28T08:31:12;47.76;43.31;65.05;;
72028;Laerm;59781;52.090;5.030;2023-02-28T08:33:40;46.29;43.04;62.49;;
72028;Laerm;59781;52.090;5.030;2023-02-28T08:36:08;46.45;42.28;51.98;;
72028;Laerm;59781;52.090;5.030;2023-02-28T08:38:35;46.04;41.99;53.50;;
72028;Laerm;59781;52.090;5.030;2023-02-28T08:41:07;46.33;42.80;58.37;;
72028;Laerm;59781;52.090;5.030;2023-02-28T08:43:35;47.92;42.82;67.18;;
72028;Laerm;59781;52.090;5.030;2023-02-28T08:46:01;48.54;43.48;64.77;;
72028;Laerm;59781;52.090;5.030;2023-02-28T08:48:30;47.23;43.61;67.95;;
72028;Laerm;59781;52.090;5.030;2023-02-28T08:51:02;46.16;42.39;50.06;;
72028;Laerm;59781;52.090;5.030;2023-02-28T08:53:28;46.27;42.20;59.21;;
72028;Laerm;59781;52.090;5.030;2023-02-28T08:56:01;44.74;41.42;59.35;;
72028;Laerm;59781;52.090;5.030;2023-02-28T08:58:27;44.95;40.81;54.01;;
72028;Laerm;59781;52.090;5.030;2023-02-28T09:00:54;46.02;40.87;65.54;;
72028;Laerm;59781;52.090;5.030;2023-02-28T09:03:21;44.25;40.90;51.31;;
72028;Laerm;59781;52.090;5.030;2023-02-28T09:05:59;44.07;40.47;59.44;;
72028;Laerm;59781;52.090;5.030;2023-02-28T09:08:29;46.19;41.23;60.77;;
72028;Laerm;59781;52.090;5.030;2023-02-28T09:10:57;45.27;41.54;61.56;;
72028;Laerm;59781;52.090;5.030;2023-02-28T09:13:25;46.53;40.59;66.32;;
72028;Laerm;59781;52.090;5.030;2023-02-28T09:15:53;45.01;40.49;57.52;;
72028;Laerm;59781;52.090;5.030;2023-02-28T09:18:19;44.42;40.43;57.74;;
72028;Laerm;59781;52.090;5.030;2023-02-28T09:20:45;45.23;40.35;64.25;;
72028;Laerm;59781;52.090;5.030;2023-02-28T09:23:12;46.51;40.51;60.05;;
72028;Laerm;59781;52.090;5.030;2023-02-28T09:25:50;44.54;40.32;60.54;;
72028;Laerm;59781;52.090;5.030;2023-02-28T09:28:17;44.07;40.23;60.18;;
72028;Laerm;59781;52.090;5.030;2023-02-28T09:30:47;45.96;40.04;69.88;;
72028;Laerm;59781;52.090;5.030;2023-02-28T09:33:14;44.37;40.08;61.56;;
72028;Laerm;59781;52.090;5.030;2023-02-28T09:35:41;45.57;40.72;55.91;;
72028;Laerm;59781;52.090;5.030;2023-02-28T09:38:09;45.10;40.36;67.90;;
72028;Laerm;59781;52.090;5.030;2023-02-28T09:40:51;45.12;40.57;55.09;;
72028;Laerm;59781;52.090;5.030;2023-02-28T09:43:24;48.76;40.74;66.68;;
72028;Laerm;59781;52.090;5.030;2023-02-28T09:48:50;48.66;41.82;67.18;;
72028;Laerm;59781;52.090;5.030;2023-02-28T09:52:01;47.80;43.59;59.43;;
72028;Laerm;59781;52.090;5.030;2023-02-28T09:54:32;47.00;42.86;50.37;;
72028;Laerm;59781;52.090;5.030;2023-02-28T09:57:11;49.48;44.27;68.97;;
72028;Laerm;59781;52.090;5.030;2023-02-28T10:02:34;49.93;42.91;74.95;;
72028;Laerm;59781;52.090;5.030;2023-02-28T10:05:14;44.56;40.78;56.99;;
72028;Laerm;59781;52.090;5.030;2023-02-28T10:08:21;47.24;40.80;68.78;;
72028;Laerm;59781;52.090;5.030;2023-02-28T10:11:07;44.61;41.27;54.07;;
72028;Laerm;59781;52.090;5.030;2023-02-28T10:14:19;45.13;40.81;61.62;;
72028;Laerm;59781;52.090;5.030;2023-02-28T10:16:56;45.89;40.92;68.19;;
72028;Laerm;59781;52.090;5.030;2023-02-28T10:19:38;44.80;40.62;57.00;;
72028;Laerm;59781;52.090;5.030;2023-02-28T10:24:55;45.63;41.24;59.60;;
72028;Laerm;59781;52.090;5.030;2023-02-28T10:27:31;47.20;41.89;61.35;;
72028;Laerm;59781;52.090;5.030;2023-02-28T10:30:01;46.40;42.61;56.08;;
72028;Laerm;59781;52.090;5.030;2023-02-28T10:32:35;49.70;42.60;67.62;;
72028;Laerm;59781;52.090;5.030;2023-02-28T10:37:59;49.64;40.72;71.62;;
72028;Laerm;59781;52.090;5.030;2023-02-28T10:40:30;47.39;40.34;65.09;;
72028;Laerm;59781;52.090;5.030;2023-02-28T10:43:05;47.16;42.10;64.92;;
72028;Laerm;59781;52.090;5.030;2023-02-28T10:45:35;50.48;41.54;75.64;;
72028;Laerm;59781;52.090;5.030;2023-02-28T10:48:39;49.60;41.19;73.25;;
72028;Laerm;59781;52.090;5.030;2023-02-28T10:51:18;47.44;42.14;60.41;;
72028;Laerm;59781;52.090;5.030;2023-02-28T10:53:55;48.70;40.64;70.26;;
72028;Laerm;59781;52.090;5.030;2023-02-28T10:56:24;45.70;41.64;53.61;;
72028;Laerm;59781;52.090;5.030;2023-02-28T11:01:46;45.84;41.96;60.14;;
72028;Laerm;59781;52.090;5.030;2023-02-28T11:04:19;45.79;41.75;51.92;;
72028;Laerm;59781;52.090;5.030;2023-02-28T11:06:57;45.25;40.74;61.22;;
72028;Laerm;59781;52.090;5.030;2023-02-28T11:09:39;44.87;41.62;67.26;;
72028;Laerm;59781;52.090;5.030;2023-02-28T11:15:14;46.45;41.70;62.33;;
72028;Laerm;59781;52.090;5.030;2023-02-28T11:17:56;46.19;40.78;64.41;;
72028;Laerm;59781;52.090;5.030;2023-02-28T11:20:28;45.20;41.27;56.51;;
72028;Laerm;59781;52.090;5.030;2023-02-28T11:22:58;46.44;42.10;59.23;;
72028;Laerm;59781;52.090;5.030;2023-02-28T11:25:37;44.62;39.85;57.38;;
72028;Laerm;59781;52.090;5.030;2023-02-28T11:28:22;43.89;40.38;52.08;;
72028;Laerm;59781;52.090;5.030;2023-02-28T11:33:46;43.47;39.92;51.99;;
72028;Laerm;59781;52.090;5.030;2023-02-28T11:36:27;43.89;39.87;51.63;;
72028;Laerm;59781;52.090;5.030;2023-02-28T11:38:59;43.31;40.12;56.39;;
72028;Laerm;59781;52.090;5.030;2023-02-28T11:46:52;44.14;40.24;54.82;;
72028;Laerm;59781;52.090;5.030;2023-02-28T11:50:16;44.16;40.35;52.29;;
72028;Laerm;59781;52.090;5.030;2023-02-28T11:52:54;54.42;40.37;72.75;;
72028;Laerm;59781;52.090;5.030;2023-02-28T11:58:31;54.81;39.63;79.79;;
72028;Laerm;59781;52.090;5.030;2023-02-28T12:01:37;52.26;39.46;70.75;;
72028;Laerm;59781;52.090;5.030;2023-02-28T12:04:42;44.43;39.51;62.82;;
72028;Laerm;59781;52.090;5.030;2023-02-28T12:07:58;47.60;39.39;68.59;;
72028;Laerm;59781;52.090;5.030;2023-02-28T12:10:42;43.32;39.28;55.82;;
72028;Laerm;59781;52.090;5.030;2023-02-28T12:13:46;44.47;39.71;57.63;;
72028;Laerm;59781;52.090;5.030;2023-02-28T12:17:06;48.94;40.09;75.16;;
72028;Laerm;59781;52.090;5.030;2023-02-28T12:22:30;49.35;40.84;70.87;;
72028;Laerm;59781;52.090;5.030;2023-02-28T12:28:02;49.56;39.98;73.72;;
72028;Laerm;59781;52.090;5.030;2023-02-28T12:30:34;43.45;39.76;57.83;;
72028;Laerm;59781;52.090;5.030;2023-02-28T12:33:13;42.83;38.91;57.86;;
72028;Laerm;59781;52.090;5.030;2023-02-28T12:35:57;45.20;39.43;61.17;;
72028;Laerm;59781;52.090;5.030;2023-02-28T12:43:57;47.91;39.93;68.70;;
72028;Laerm;59781;52.090;5.030;2023-02-28T12:46:38;43.32;40.10;54.65;;
72028;Laerm;59781;52.090;5.030;2023-02-28T12:49:38;47.42;40.33;66.77;;
72028;Laerm;59781;52.090;5.030;2023-02-28T12:52:06;42.92;39.52;52.26;;
72028;Laerm;59781;52.090;5.030;2023-02-28T13:00:16;46.62;40.21;65.91;;
72028;Laerm;59781;52.090;5.030;2023-02-28T13:05:37;43.87;39.46;61.26;;
72028;Laerm;59781;52.090;5.030;2023-02-28T13:10:53;43.10;39.31;52.11;;
72028;Laerm;59781;52.090;5.030;2023-02-28T13:13:30;44.24;38.92;65.45;;
72028;Laerm;59781;52.090;5.030;2023-02-28T13:18:36;43.51;39.67;50.96;;
72028;Laerm;59781;52.090;5.030;2023-02-28T13:21:04;46.37;40.02;69.04;;
72028;Laerm;59781;52.090;5.030;2023-02-28T13:40:14;42.69;39.02;55.36;;
72028;Laerm;59781;52.090;5.030;2023-02-28T13:42:51;42.35;39.14;49.53;;
72028;Laerm;59781;52.090;5.030;2023-02-28T13:45:22;42.92;39.26;56.69;;
72028;Laerm;59781;52.090;5.030;2023-02-28T13:47:55;45.25;39.87;65.76;;
72028;Laerm;59781;52.090;5.030;2023-02-28T13:50:35;46.28;39.75;71.31;;
72028;Laerm;59781;52.090;5.030;2023-02-28T13:56:34;43.86;39.21;54.31;;
72028;Laerm;59781;52.090;5.030;2023-02-28T14:04:46;45.79;39.23;64.01;;
72028;Laerm;59781;52.090;5.030;2023-02-28T14:07:25;51.57;40.66;76.84;;
72028;Laerm;59781;52.090;5.030;2023-02-28T14:10:03;49.82;40.15;70.98;;
72028;Laerm;59781;52.090;5.030;2023-02-28T14:16:06;45.12;39.13;66.66;;
72028;Laerm;59781;52.090;5.030;2023-02-28T14:18:37;43.45;39.24;57.16;;
72028;Laerm;59781;52.090;5.030;2023-02-28T14:21:21;44.19;39.35;56.69;;
72028;Laerm;59781;52.090;5.030;2023-02-28T14:27:16;44.38;39.85;64.87;;
72028;Laerm;59781;52.090;5.030;2023-02-28T14:32:50;43.72;39.26;59.68;;
72028;Laerm;59781;52.090;5.030;2023-02-28T14:37:53;44.60;39.02;62.09;;
72028;Laerm;59781;52.090;5.030;2023-02-28T14:40:30;51.55;39.98;68.48;;
72028;Laerm;59781;52.090;5.030;2023-02-28T14:43:19;46.26;39.07;66.16;;
72028;Laerm;59781;52.090;5.030;2023-02-28T14:45:58;46.58;38.69;53.77;;
72028;Laerm;59781;52.090;5.030;2023-02-28T14:48:26;46.89;39.93;63.88;;
72028;Laerm;59781;52.090;5.030;2023-02-28T14:51:01;56.16;39.50;84.03;;
72028;Laerm;59781;52.090;5.030;2023-02-28T14:53:34;44.36;39.55;60.52;;
72028;Laerm;59781;52.090;5.030;2023-02-28T14:56:01;50.33;39.47;78.47;;
72028;Laerm;59781;52.090;5.030;2023-02-28T14:58:33;43.05;39.42;51.28;;
72028;Laerm;59781;52.090;5.030;2023-02-28T15:01:03;43.97;40.00;66.51;;
72028;Laerm;59781;52.090;5.030;2023-02-28T15:03:36;43.93;39.78;55.67;;
72028;Laerm;59781;52.090;5.030;2023-02-28T15:06:16;45.41;38.92;57.06;;
72028;Laerm;59781;52.090;5.030;2023-02-28T15:08:44;45.14;39.38;66.18;;
72028;Laerm;59781;52.090;5.030;2023-02-28T15:11:17;45.14;39.50;69.76;;
72028;Laerm;59781;52.090;5.030;2023-02-28T15:13:54;43.92;39.65;59.32;;
72028;Laerm;59781;52.090;5.030;2023-02-28T15:16:36;43.60;38.99;65.48;;
72028;Laerm;59781;52.090;5.030;2023-02-28T15:19:20;43.24;38.38;53.13;;
72028;Laerm;59781;52.090;5.030;2023-02-28T15:21:57;42.81;39.23;46.93;;
72028;Laerm;59781;52.090;5.030;2023-02-28T15:24:50;42.61;38.86;53.76;;
72028;Laerm;59781;52.090;5.030;2023-02-28T15:29:57;42.08;38.56;47.74;;
72028;Laerm;59781;52.090;5.030;2023-02-28T15:35:26;42.22;38.62;52.74;;
72028;Laerm;59781;52.090;5.030;2023-02-28T15:38:02;42.23;38.80;49.11;;
72028;Laerm;59781;52.090;5.030;2023-02-28T15:40:41;42.92;39.37;47.76;;
72028;Laerm;59781;52.090;5.030;2023-02-28T15:43:28;42.64;38.97;56.92;;
72028;Laerm;59781;52.090;5.030;2023-02-28T15:46:08;41.89;38.63;50.66;;
72028;Laerm;59781;52.090;5.030;2023-02-28T15:48:55;42.36;38.15;52.48;;
72028;Laerm;59781;52.090;5.030;2023-02-28T15:51:32;43.34;39.79;56.25;;
72028;Laerm;59781;52.090;5.030;2023-02-28T15:54:10;42.37;38.69;49.18;;
72028;Laerm;59781;52.090;5.030;2023-02-28T15:56:45;43.85;39.44;59.95;;
72028;Laerm;59781;52.090;5.030;2023-02-28T15:59:20;43.56;39.50;54.84;;
72028;Laerm;59781;52.090;5.030;2023-02-28T16:01:47;43.38;39.18;61.12;;
72028;Laerm;59781;52.090;5.030;2023-02-28T16:04:19;42.91;39.01;52.54;;
72028;Laerm;59781;52.090;5.030;2023-02-28T16:09:26;43.71;39.90;57.46;;
72028;Laerm;59781;52.090;5.030;2023-02-28T16:11:59;43.10;39.79;53.40;;
72028;Laerm;59781;52.090;5.030;2023-02-28T16:14:29;42.89;39.31;59.12;;
72028;Laerm;59781;52.090;5.030;2023-02-28T16:17:06;43.75;40.00;52.39;;
72028;Laerm;59781;52.090;5.030;2023-02-28T16:19:34;43.68;39.14;57.80;;
72028;Laerm;59781;52.090;5.030;2023-02-28T16:22:00;43.84;38.97;50.56;;
72028;Laerm;59781;52.090;5.030;2023-02-28T16:24:27;44.33;39.26;56.14;;
72028;Laerm;59781;52.090;5.030;2023-02-28T16:26:56;43.22;39.53;48.25;;
72028;Laerm;59781;52.090;5.030;2023-02-28T16:29:40;43.11;39.09;51.42;;
72028;Laerm;59781;52.090;5.030;2023-02-28T16:32:06;42.57;39.11;49.12;;
72028;Laerm;59781;52.090;5.030;2023-02-28T16:34:32;44.14;39.23;53.63;;